East Aurora, New York
Current Conditions -  °F | °C
As of 12:54 PM on Sunday 25 Jan 2015 (Local Time) from KBUF Reporting Station
Broken Clouds Broken Clouds  
Wind Chill: 17°   Ceiling: 2000
Heat Index: 17°   Visibility: 9mi
Dew Point:   Wind: 3mph
Humidity: 68%   Direction: 50°NE
Pressure: 29.91"   Gusts: NA
Location:  42.77°N, 78.61°W
Report Text: KBUF 251754Z 05003KT 9SM BKN020 BKN250 M08/M13 A2991 RMK AO2 SNE52 SLP141 4/002 933010 P0000 60000 T10831133 11078 21094 50007
Loading
Personal Weather Stations






























Interactive Weather Map New forecast layout! Learn more

10-Day Weather Forecast

Advertisements
Track Severe Weather on mobile